sensor_id;sensor_type;location;lat;lon;timestamp;P1;durP1;ratioP1;P2;durP2;ratioP2
9208;SDS011;4639;48.862;9.188;2023-09-18T00:02:20;300.83;;;279.10;;
9208;SDS011;4639;48.862;9.188;2023-09-18T00:04:46;290.08;;;269.50;;
9208;SDS011;4639;48.862;9.188;2023-09-18T00:07:13;339.17;;;316.02;;
9208;SDS011;4639;48.862;9.188;2023-09-18T00:09:39;311.65;;;289.83;;
9208;SDS011;4639;48.862;9.188;2023-09-18T00:12:05;321.10;;;298.80;;
9208;SDS011;4639;48.862;9.188;2023-09-18T00:14:31;358.33;;;333.60;;
9208;SDS011;4639;48.862;9.188;2023-09-18T00:16:57;344.52;;;321.55;;
9208;SDS011;4639;48.862;9.188;2023-09-18T00:19:23;374.70;;;350.10;;
9208;SDS011;4639;48.862;9.188;2023-09-18T00:21:49;348.98;;;325.92;;
9208;SDS011;4639;48.862;9.188;2023-09-18T00:24:17;339.60;;;316.88;;
9208;SDS011;4639;48.862;9.188;2023-09-18T00:26:43;352.20;;;328.88;;
9208;SDS011;4639;48.862;9.188;2023-09-18T00:29:08;362.27;;;338.17;;
9208;SDS011;4639;48.862;9.188;2023-09-18T00:31:34;375.13;;;350.63;;
9208;SDS011;4639;48.862;9.188;2023-09-18T00:33:59;370.88;;;346.30;;
9208;SDS011;4639;48.862;9.188;2023-09-18T00:36:25;353.45;;;329.70;;
9208;SDS011;4639;48.862;9.188;2023-09-18T00:38:50;358.80;;;334.83;;
9208;SDS011;4639;48.862;9.188;2023-09-18T00:41:16;306.70;;;284.83;;
9208;SDS011;4639;48.862;9.188;2023-09-18T00:43:41;349.20;;;325.98;;
9208;SDS011;4639;48.862;9.188;2023-09-18T00:46:07;343.20;;;319.95;;
9208;SDS011;4639;48.862;9.188;2023-09-18T00:48:33;335.58;;;312.60;;
9208;SDS011;4639;48.862;9.188;2023-09-18T00:50:59;342.48;;;319.33;;
9208;SDS011;4639;48.862;9.188;2023-09-18T00:53:25;340.20;;;316.75;;
9208;SDS011;4639;48.862;9.188;2023-09-18T00:55:53;336.95;;;313.83;;
9208;SDS011;4639;48.862;9.188;2023-09-18T00:58:20;347.90;;;324.15;;
9208;SDS011;4639;48.862;9.188;2023-09-18T01:00:46;299.52;;;279.00;;
9208;SDS011;4639;48.862;9.188;2023-09-18T01:03:16;266.45;;;248.25;;
9208;SDS011;4639;48.862;9.188;2023-09-18T01:05:43;252.07;;;234.55;;
9208;SDS011;4639;48.862;9.188;2023-09-18T01:08:12;247.98;;;230.45;;
9208;SDS011;4639;48.862;9.188;2023-09-18T01:11:12;246.60;;;229.13;;
9208;SDS011;4639;48.862;9.188;2023-09-18T01:13:36;241.00;;;224.07;;
9208;SDS011;4639;48.862;9.188;2023-09-18T01:16:08;250.50;;;232.80;;
9208;SDS011;4639;48.862;9.188;2023-09-18T01:18:48;248.88;;;231.32;;
9208;SDS011;4639;48.862;9.188;2023-09-18T01:21:14;238.60;;;222.00;;
9208;SDS011;4639;48.862;9.188;2023-09-18T01:23:39;241.73;;;225.18;;
9208;SDS011;4639;48.862;9.188;2023-09-18T01:26:05;257.80;;;239.93;;
9208;SDS011;4639;48.862;9.188;2023-09-18T01:28:31;241.80;;;224.95;;
9208;SDS011;4639;48.862;9.188;2023-09-18T01:30:56;217.70;;;202.38;;
9208;SDS011;4639;48.862;9.188;2023-09-18T01:33:22;216.48;;;201.20;;
9208;SDS011;4639;48.862;9.188;2023-09-18T01:35:50;248.50;;;230.73;;
9208;SDS011;4639;48.862;9.188;2023-09-18T01:38:17;226.60;;;210.85;;
9208;SDS011;4639;48.862;9.188;2023-09-18T01:40:43;214.77;;;200.48;;
9208;SDS011;4639;48.862;9.188;2023-09-18T01:43:09;213.20;;;198.45;;
9208;SDS011;4639;48.862;9.188;2023-09-18T01:45:34;234.05;;;217.50;;
9208;SDS011;4639;48.862;9.188;2023-09-18T01:48:03;231.20;;;215.02;;
9208;SDS011;4639;48.862;9.188;2023-09-18T01:50:37;238.75;;;221.95;;
9208;SDS011;4639;48.862;9.188;2023-09-18T01:53:05;253.10;;;235.48;;
9208;SDS011;4639;48.862;9.188;2023-09-18T01:55:30;290.60;;;270.58;;
9208;SDS011;4639;48.862;9.188;2023-09-18T01:57:57;291.13;;;271.10;;
9208;SDS011;4639;48.862;9.188;2023-09-18T02:00:23;448.40;;;412.23;;
9208;SDS011;4639;48.862;9.188;2023-09-18T02:02:49;297.60;;;277.25;;
9208;SDS011;4639;48.862;9.188;2023-09-18T02:05:14;273.15;;;254.80;;
9208;SDS011;4639;48.862;9.188;2023-09-18T02:07:40;285.98;;;267.13;;
9208;SDS011;4639;48.862;9.188;2023-09-18T02:10:06;296.45;;;276.23;;
9208;SDS011;4639;48.862;9.188;2023-09-18T02:12:32;328.77;;;306.20;;
9208;SDS011;4639;48.862;9.188;2023-09-18T02:14:57;311.40;;;290.65;;
9208;SDS011;4639;48.862;9.188;2023-09-18T02:17:26;313.83;;;292.55;;
9208;SDS011;4639;48.862;9.188;2023-09-18T02:19:51;280.13;;;260.73;;
9208;SDS011;4639;48.862;9.188;2023-09-18T02:22:17;306.75;;;286.02;;
9208;SDS011;4639;48.862;9.188;2023-09-18T02:24:42;254.82;;;236.65;;
9208;SDS011;4639;48.862;9.188;2023-09-18T02:27:11;255.65;;;237.63;;
9208;SDS011;4639;48.862;9.188;2023-09-18T02:29:37;268.45;;;249.65;;
9208;SDS011;4639;48.862;9.188;2023-09-18T02:32:03;252.85;;;234.77;;
9208;SDS011;4639;48.862;9.188;2023-09-18T02:34:28;247.32;;;230.60;;
9208;SDS011;4639;48.862;9.188;2023-09-18T02:36:54;169.00;;;157.63;;
9208;SDS011;4639;48.862;9.188;2023-09-18T02:39:19;223.07;;;207.88;;
9208;SDS011;4639;48.862;9.188;2023-09-18T02:41:45;653.60;;;591.17;;
9208;SDS011;4639;48.862;9.188;2023-09-18T02:44:11;185.10;;;172.90;;
9208;SDS011;4639;48.862;9.188;2023-09-18T02:46:37;182.45;;;170.30;;
9208;SDS011;4639;48.862;9.188;2023-09-18T02:49:03;206.93;;;193.20;;
9208;SDS011;4639;48.862;9.188;2023-09-18T02:51:29;208.55;;;194.85;;
9208;SDS011;4639;48.862;9.188;2023-09-18T02:53:56;230.75;;;214.82;;
9208;SDS011;4639;48.862;9.188;2023-09-18T02:56:22;227.32;;;212.05;;
9208;SDS011;4639;48.862;9.188;2023-09-18T02:58:48;220.98;;;205.82;;
9208;SDS011;4639;48.862;9.188;2023-09-18T03:01:13;212.02;;;197.93;;
9208;SDS011;4639;48.862;9.188;2023-09-18T03:03:39;212.85;;;198.65;;
9208;SDS011;4639;48.862;9.188;2023-09-18T03:06:06;213.00;;;199.25;;
9208;SDS011;4639;48.862;9.188;2023-09-18T03:08:32;213.50;;;199.30;;
9208;SDS011;4639;48.862;9.188;2023-09-18T03:10:59;272.08;;;254.18;;
9208;SDS011;4639;48.862;9.188;2023-09-18T03:13:28;184.68;;;172.55;;
9208;SDS011;4639;48.862;9.188;2023-09-18T03:15:56;152.30;;;142.68;;
9208;SDS011;4639;48.862;9.188;2023-09-18T03:18:22;171.20;;;159.95;;
9208;SDS011;4639;48.862;9.188;2023-09-18T03:20:48;168.82;;;157.93;;
9208;SDS011;4639;48.862;9.188;2023-09-18T03:23:13;163.80;;;153.52;;
9208;SDS011;4639;48.862;9.188;2023-09-18T03:25:39;183.10;;;171.23;;
9208;SDS011;4639;48.862;9.188;2023-09-18T03:28:04;140.68;;;131.73;;
9208;SDS011;4639;48.862;9.188;2023-09-18T03:30:30;165.10;;;154.10;;
9208;SDS011;4639;48.862;9.188;2023-09-18T03:32:56;182.98;;;170.93;;
9208;SDS011;4639;48.862;9.188;2023-09-18T03:35:22;183.23;;;170.80;;
9208;SDS011;4639;48.862;9.188;2023-09-18T03:37:49;190.68;;;177.60;;
9208;SDS011;4639;48.862;9.188;2023-09-18T03:40:21;189.93;;;176.45;;
9208;SDS011;4639;48.862;9.188;2023-09-18T03:42:47;203.23;;;189.73;;
9208;SDS011;4639;48.862;9.188;2023-09-18T03:45:14;216.05;;;201.45;;
9208;SDS011;4639;48.862;9.188;2023-09-18T03:47:40;207.50;;;193.57;;
9208;SDS011;4639;48.862;9.188;2023-09-18T03:50:09;204.02;;;189.82;;
9208;SDS011;4639;48.862;9.188;2023-09-18T03:52:36;188.77;;;175.70;;
9208;SDS011;4639;48.862;9.188;2023-09-18T03:55:03;202.43;;;188.32;;
9208;SDS011;4639;48.862;9.188;2023-09-18T03:57:29;207.07;;;193.43;;
9208;SDS011;4639;48.862;9.188;2023-09-18T03:59:55;240.10;;;223.75;;
9208;SDS011;4639;48.862;9.188;2023-09-18T04:02:21;196.63;;;183.07;;
9208;SDS011;4639;48.862;9.188;2023-09-18T04:04:48;232.35;;;216.38;;
9208;SDS011;4639;48.862;9.188;2023-09-18T04:07:14;202.90;;;188.90;;
9208;SDS011;4639;48.862;9.188;2023-09-18T04:09:41;180.25;;;167.35;;
9208;SDS011;4639;48.862;9.188;2023-09-18T04:12:07;131.27;;;122.47;;
9208;SDS011;4639;48.862;9.188;2023-09-18T04:14:33;147.68;;;138.05;;
9208;SDS011;4639;48.862;9.188;2023-09-18T04:16:59;129.55;;;120.82;;
9208;SDS011;4639;48.862;9.188;2023-09-18T04:19:25;147.85;;;138.32;;
9208;SDS011;4639;48.862;9.188;2023-09-18T04:21:51;197.15;;;184.43;;
9208;SDS011;4639;48.862;9.188;2023-09-18T04:24:17;305.05;;;281.38;;
9208;SDS011;4639;48.862;9.188;2023-09-18T04:26:43;167.93;;;157.13;;
9208;SDS011;4639;48.862;9.188;2023-09-18T04:29:08;176.63;;;165.40;;
9208;SDS011;4639;48.862;9.188;2023-09-18T04:31:34;197.13;;;184.98;;
9208;SDS011;4639;48.862;9.188;2023-09-18T04:34:00;174.20;;;162.95;;
9208;SDS011;4639;48.862;9.188;2023-09-18T04:36:25;198.95;;;186.73;;
9208;SDS011;4639;48.862;9.188;2023-09-18T04:38:51;186.32;;;174.13;;
9208;SDS011;4639;48.862;9.188;2023-09-18T04:41:17;165.60;;;155.15;;
9208;SDS011;4639;48.862;9.188;2023-09-18T04:43:42;154.13;;;144.43;;
9208;SDS011;4639;48.862;9.188;2023-09-18T04:46:08;144.90;;;136.13;;
9208;SDS011;4639;48.862;9.188;2023-09-18T04:48:33;155.52;;;145.55;;
9208;SDS011;4639;48.862;9.188;2023-09-18T04:50:59;141.52;;;132.90;;
9208;SDS011;4639;48.862;9.188;2023-09-18T04:53:29;133.10;;;124.85;;
9208;SDS011;4639;48.862;9.188;2023-09-18T04:55:55;137.70;;;128.57;;
9208;SDS011;4639;48.862;9.188;2023-09-18T04:58:21;136.80;;;128.15;;
9208;SDS011;4639;48.862;9.188;2023-09-18T05:00:47;137.98;;;129.35;;
9208;SDS011;4639;48.862;9.188;2023-09-18T05:03:19;143.18;;;133.80;;
9208;SDS011;4639;48.862;9.188;2023-09-18T05:05:45;128.20;;;120.22;;
9208;SDS011;4639;48.862;9.188;2023-09-18T05:08:10;144.68;;;134.90;;
9208;SDS011;4639;48.862;9.188;2023-09-18T05:10:36;130.73;;;122.18;;
9208;SDS011;4639;48.862;9.188;2023-09-18T05:13:02;136.57;;;127.70;;
9208;SDS011;4639;48.862;9.188;2023-09-18T05:15:29;119.95;;;111.90;;
9208;SDS011;4639;48.862;9.188;2023-09-18T05:17:55;127.80;;;119.03;;
9208;SDS011;4639;48.862;9.188;2023-09-18T05:20:23;126.32;;;117.93;;
9208;SDS011;4639;48.862;9.188;2023-09-18T05:22:50;145.60;;;136.05;;
9208;SDS011;4639;48.862;9.188;2023-09-18T05:25:20;143.50;;;134.63;;
9208;SDS011;4639;48.862;9.188;2023-09-18T05:27:47;132.50;;;123.90;;
9208;SDS011;4639;48.862;9.188;2023-09-18T05:30:15;123.53;;;115.22;;
9208;SDS011;4639;48.862;9.188;2023-09-18T05:32:43;121.78;;;114.15;;
9208;SDS011;4639;48.862;9.188;2023-09-18T05:35:10;125.32;;;117.50;;
9208;SDS011;4639;48.862;9.188;2023-09-18T05:37:37;121.88;;;113.22;;
9208;SDS011;4639;48.862;9.188;2023-09-18T05:40:04;122.20;;;113.95;;
9208;SDS011;4639;48.862;9.188;2023-09-18T05:42:33;125.97;;;117.78;;
9208;SDS011;4639;48.862;9.188;2023-09-18T05:44:58;125.68;;;117.53;;
9208;SDS011;4639;48.862;9.188;2023-09-18T05:47:24;139.95;;;130.40;;
9208;SDS011;4639;48.862;9.188;2023-09-18T05:49:49;126.68;;;117.85;;
9208;SDS011;4639;48.862;9.188;2023-09-18T05:52:15;118.60;;;110.93;;
9208;SDS011;4639;48.862;9.188;2023-09-18T05:54:40;149.65;;;139.40;;
9208;SDS011;4639;48.862;9.188;2023-09-18T05:57:06;137.02;;;127.85;;
9208;SDS011;4639;48.862;9.188;2023-09-18T05:59:37;136.50;;;126.93;;
9208;SDS011;4639;48.862;9.188;2023-09-18T06:02:05;127.45;;;119.18;;
9208;SDS011;4639;48.862;9.188;2023-09-18T06:04:30;138.63;;;129.02;;
9208;SDS011;4639;48.862;9.188;2023-09-18T06:06:56;118.25;;;110.30;;
9208;SDS011;4639;48.862;9.188;2023-09-18T06:09:22;153.23;;;142.30;;
9208;SDS011;4639;48.862;9.188;2023-09-18T06:11:47;126.47;;;117.93;;
9208;SDS011;4639;48.862;9.188;2023-09-18T06:14:13;120.10;;;112.30;;
9208;SDS011;4639;48.862;9.188;2023-09-18T06:16:39;126.10;;;117.40;;
9208;SDS011;4639;48.862;9.188;2023-09-18T06:19:04;118.72;;;110.93;;
9208;SDS011;4639;48.862;9.188;2023-09-18T06:21:30;132.98;;;124.07;;
9208;SDS011;4639;48.862;9.188;2023-09-18T06:23:56;126.50;;;118.35;;
9208;SDS011;4639;48.862;9.188;2023-09-18T06:26:21;116.97;;;109.28;;
9208;SDS011;4639;48.862;9.188;2023-09-18T06:28:47;123.47;;;115.53;;
9208;SDS011;4639;48.862;9.188;2023-09-18T06:31:12;138.68;;;129.48;;
9208;SDS011;4639;48.862;9.188;2023-09-18T06:33:48;165.93;;;153.93;;
9208;SDS011;4639;48.862;9.188;2023-09-18T06:36:14;193.68;;;179.48;;
9208;SDS011;4639;48.862;9.188;2023-09-18T06:38:39;155.65;;;144.63;;
9208;SDS011;4639;48.862;9.188;2023-09-18T06:41:05;138.43;;;128.15;;
9208;SDS011;4639;48.862;9.188;2023-09-18T06:43:34;149.20;;;138.45;;
9208;SDS011;4639;48.862;9.188;2023-09-18T06:45:59;175.10;;;163.10;;
9208;SDS011;4639;48.862;9.188;2023-09-18T06:48:25;171.70;;;159.85;;
9208;SDS011;4639;48.862;9.188;2023-09-18T06:50:50;165.95;;;154.55;;
9208;SDS011;4639;48.862;9.188;2023-09-18T06:53:19;152.88;;;142.25;;
9208;SDS011;4639;48.862;9.188;2023-09-18T06:55:44;134.80;;;126.28;;
9208;SDS011;4639;48.862;9.188;2023-09-18T06:58:10;139.55;;;130.55;;
9208;SDS011;4639;48.862;9.188;2023-09-18T07:00:36;142.70;;;133.55;;
9208;SDS011;4639;48.862;9.188;2023-09-18T07:03:01;137.13;;;128.18;;
9208;SDS011;4639;48.862;9.188;2023-09-18T07:05:27;164.57;;;153.50;;
9208;SDS011;4639;48.862;9.188;2023-09-18T07:07:53;137.65;;;128.77;;
9208;SDS011;4639;48.862;9.188;2023-09-18T07:10:18;144.77;;;135.05;;
9208;SDS011;4639;48.862;9.188;2023-09-18T07:12:44;142.73;;;133.38;;
9208;SDS011;4639;48.862;9.188;2023-09-18T07:15:10;141.38;;;132.18;;
9208;SDS011;4639;48.862;9.188;2023-09-18T07:17:35;130.43;;;121.97;;
9208;SDS011;4639;48.862;9.188;2023-09-18T07:20:01;154.05;;;144.18;;
9208;SDS011;4639;48.862;9.188;2023-09-18T07:22:34;164.13;;;153.05;;
9208;SDS011;4639;48.862;9.188;2023-09-18T07:25:00;161.73;;;150.93;;
9208;SDS011;4639;48.862;9.188;2023-09-18T07:27:25;125.97;;;117.53;;
9208;SDS011;4639;48.862;9.188;2023-09-18T07:29:51;132.57;;;123.82;;
9208;SDS011;4639;48.862;9.188;2023-09-18T07:32:17;127.18;;;119.32;;
9208;SDS011;4639;48.862;9.188;2023-09-18T07:34:42;141.93;;;132.20;;
9208;SDS011;4639;48.862;9.188;2023-09-18T07:37:08;281.52;;;257.90;;
9208;SDS011;4639;48.862;9.188;2023-09-18T07:39:33;505.25;;;462.23;;
9208;SDS011;4639;48.862;9.188;2023-09-18T07:41:59;315.92;;;292.85;;
9208;SDS011;4639;48.862;9.188;2023-09-18T07:44:25;426.35;;;391.58;;
9208;SDS011;4639;48.862;9.188;2023-09-18T07:46:51;234.80;;;219.50;;
9208;SDS011;4639;48.862;9.188;2023-09-18T07:49:16;217.93;;;203.30;;
9208;SDS011;4639;48.862;9.188;2023-09-18T07:51:43;274.25;;;256.23;;
9208;SDS011;4639;48.862;9.188;2023-09-18T07:54:09;238.52;;;223.15;;
9208;SDS011;4639;48.862;9.188;2023-09-18T07:56:35;296.25;;;276.88;;
9208;SDS011;4639;48.862;9.188;2023-09-18T07:59:01;259.35;;;242.73;;
9208;SDS011;4639;48.862;9.188;2023-09-18T08:01:27;282.75;;;264.83;;
9208;SDS011;4639;48.862;9.188;2023-09-18T08:03:53;178.27;;;166.23;;
9208;SDS011;4639;48.862;9.188;2023-09-18T08:06:18;142.35;;;132.93;;
9208;SDS011;4639;48.862;9.188;2023-09-18T08:08:44;174.32;;;162.77;;
9208;SDS011;4639;48.862;9.188;2023-09-18T08:11:10;238.77;;;223.35;;
9208;SDS011;4639;48.862;9.188;2023-09-18T08:13:36;255.57;;;239.82;;
9208;SDS011;4639;48.862;9.188;2023-09-18T08:16:02;319.27;;;298.80;;
9208;SDS011;4639;48.862;9.188;2023-09-18T08:18:30;317.20;;;296.95;;
9208;SDS011;4639;48.862;9.188;2023-09-18T08:20:56;297.38;;;277.85;;
9208;SDS011;4639;48.862;9.188;2023-09-18T08:23:24;304.88;;;285.08;;
9208;SDS011;4639;48.862;9.188;2023-09-18T08:25:49;404.23;;;372.38;;
9208;SDS011;4639;48.862;9.188;2023-09-18T08:28:16;278.40;;;259.63;;
9208;SDS011;4639;48.862;9.188;2023-09-18T08:30:42;278.13;;;260.40;;
9208;SDS011;4639;48.862;9.188;2023-09-18T08:33:12;261.45;;;244.55;;
9208;SDS011;4639;48.862;9.188;2023-09-18T08:35:38;290.48;;;271.63;;
9208;SDS011;4639;48.862;9.188;2023-09-18T08:38:04;276.13;;;258.08;;
9208;SDS011;4639;48.862;9.188;2023-09-18T08:40:30;288.83;;;270.25;;
9208;SDS011;4639;48.862;9.188;2023-09-18T08:42:57;325.20;;;304.42;;
9208;SDS011;4639;48.862;9.188;2023-09-18T08:45:35;380.42;;;353.63;;
9208;SDS011;4639;48.862;9.188;2023-09-18T08:48:08;343.05;;;319.20;;
9208;SDS011;4639;48.862;9.188;2023-09-18T08:50:34;222.30;;;207.57;;
9208;SDS011;4639;48.862;9.188;2023-09-18T08:53:01;216.18;;;201.60;;
9208;SDS011;4639;48.862;9.188;2023-09-18T08:55:27;158.00;;;147.77;;
9208;SDS011;4639;48.862;9.188;2023-09-18T08:57:53;457.90;;;416.45;;
9208;SDS011;4639;48.862;9.188;2023-09-18T09:00:22;129.30;;;120.82;;
9208;SDS011;4639;48.862;9.188;2023-09-18T09:02:48;154.25;;;143.38;;
9208;SDS011;4639;48.862;9.188;2023-09-18T09:05:16;155.18;;;145.75;;
9208;SDS011;4639;48.862;9.188;2023-09-18T09:07:41;179.48;;;168.60;;
9208;SDS011;4639;48.862;9.188;2023-09-18T09:10:07;150.40;;;140.15;;
9208;SDS011;4639;48.862;9.188;2023-09-18T09:15:26;131.63;;;123.15;;
9208;SDS011;4639;48.862;9.188;2023-09-18T09:18:03;148.55;;;138.80;;
9208;SDS011;4639;48.862;9.188;2023-09-18T09:20:30;186.80;;;175.10;;
9208;SDS011;4639;48.862;9.188;2023-09-18T09:23:03;134.13;;;125.35;;
9208;SDS011;4639;48.862;9.188;2023-09-18T09:25:30;160.50;;;150.52;;
9208;SDS011;4639;48.862;9.188;2023-09-18T09:27:58;138.85;;;129.82;;
9208;SDS011;4639;48.862;9.188;2023-09-18T09:30:25;130.73;;;122.25;;
9208;SDS011;4639;48.862;9.188;2023-09-18T09:32:53;127.40;;;119.25;;
9208;SDS011;4639;48.862;9.188;2023-09-18T09:35:23;133.38;;;124.38;;
9208;SDS011;4639;48.862;9.188;2023-09-18T09:37:49;133.90;;;124.82;;
9208;SDS011;4639;48.862;9.188;2023-09-18T09:40:16;150.35;;;140.00;;
9208;SDS011;4639;48.862;9.188;2023-09-18T09:42:44;172.25;;;161.45;;
9208;SDS011;4639;48.862;9.188;2023-09-18T09:45:13;176.10;;;165.30;;
9208;SDS011;4639;48.862;9.188;2023-09-18T09:47:42;184.75;;;173.48;;
9208;SDS011;4639;48.862;9.188;2023-09-18T09:50:09;179.93;;;168.68;;
9208;SDS011;4639;48.862;9.188;2023-09-18T09:52:44;192.13;;;180.02;;
9208;SDS011;4639;48.862;9.188;2023-09-18T09:55:25;170.82;;;160.13;;
9208;SDS011;4639;48.862;9.188;2023-09-18T09:57:52;165.40;;;155.27;;
9208;SDS011;4639;48.862;9.188;2023-09-18T10:00:22;171.35;;;160.68;;
9208;SDS011;4639;48.862;9.188;2023-09-18T10:03:01;183.05;;;171.65;;
9208;SDS011;4639;48.862;9.188;2023-09-18T10:05:32;177.07;;;165.98;;
9208;SDS011;4639;48.862;9.188;2023-09-18T10:08:02;174.27;;;163.40;;
9208;SDS011;4639;48.862;9.188;2023-09-18T10:10:32;211.23;;;197.82;;
9208;SDS011;4639;48.862;9.188;2023-09-18T10:13:02;170.40;;;159.73;;
9208;SDS011;4639;48.862;9.188;2023-09-18T10:15:33;221.15;;;207.02;;
9208;SDS011;4639;48.862;9.188;2023-09-18T10:18:03;197.20;;;184.48;;
9208;SDS011;4639;48.862;9.188;2023-09-18T10:20:33;166.38;;;155.70;;
9208;SDS011;4639;48.862;9.188;2023-09-18T10:23:07;157.75;;;148.10;;
9208;SDS011;4639;48.862;9.188;2023-09-18T10:25:46;160.05;;;150.13;;
9208;SDS011;4639;48.862;9.188;2023-09-18T10:28:17;159.48;;;149.73;;
9208;SDS011;4639;48.862;9.188;2023-09-18T10:30:43;152.63;;;143.25;;
9208;SDS011;4639;48.862;9.188;2023-09-18T10:33:10;157.60;;;147.57;;
9208;SDS011;4639;48.862;9.188;2023-09-18T10:35:35;148.93;;;139.50;;
9208;SDS011;4639;48.862;9.188;2023-09-18T10:38:03;247.10;;;230.30;;
9208;SDS011;4639;48.862;9.188;2023-09-18T10:40:31;157.65;;;147.57;;
9208;SDS011;4639;48.862;9.188;2023-09-18T10:42:59;155.20;;;145.23;;
9208;SDS011;4639;48.862;9.188;2023-09-18T10:45:29;151.50;;;141.80;;
9208;SDS011;4639;48.862;9.188;2023-09-18T10:47:55;169.07;;;157.95;;
9208;SDS011;4639;48.862;9.188;2023-09-18T10:50:25;179.23;;;167.30;;
9208;SDS011;4639;48.862;9.188;2023-09-18T10:52:52;175.95;;;164.52;;
9208;SDS011;4639;48.862;9.188;2023-09-18T10:55:17;154.48;;;144.25;;
9208;SDS011;4639;48.862;9.188;2023-09-18T10:57:50;150.70;;;141.02;;
9208;SDS011;4639;48.862;9.188;2023-09-18T11:00:17;162.98;;;152.48;;
9208;SDS011;4639;48.862;9.188;2023-09-18T11:02:47;170.82;;;159.88;;
9208;SDS011;4639;48.862;9.188;2023-09-18T11:05:39;211.27;;;196.73;;
9208;SDS011;4639;48.862;9.188;2023-09-18T11:11:06;170.40;;;159.20;;
9208;SDS011;4639;48.862;9.188;2023-09-18T11:13:40;220.70;;;205.32;;
9208;SDS011;4639;48.862;9.188;2023-09-18T11:16:14;168.90;;;157.43;;
9208;SDS011;4639;48.862;9.188;2023-09-18T11:18:41;175.60;;;164.23;;
9208;SDS011;4639;48.862;9.188;2023-09-18T11:21:11;143.38;;;134.25;;
9208;SDS011;4639;48.862;9.188;2023-09-18T11:23:38;245.15;;;228.15;;
9208;SDS011;4639;48.862;9.188;2023-09-18T11:26:11;176.63;;;165.18;;
9208;SDS011;4639;48.862;9.188;2023-09-18T11:28:37;142.93;;;133.70;;
9208;SDS011;4639;48.862;9.188;2023-09-18T11:31:03;213.48;;;199.38;;
9208;SDS011;4639;48.862;9.188;2023-09-18T11:33:29;150.45;;;140.82;;
9208;SDS011;4639;48.862;9.188;2023-09-18T11:35:56;144.18;;;135.07;;
9208;SDS011;4639;48.862;9.188;2023-09-18T11:38:28;174.98;;;163.05;;
9208;SDS011;4639;48.862;9.188;2023-09-18T11:40:54;166.23;;;155.00;;
9208;SDS011;4639;48.862;9.188;2023-09-18T11:45:54;109.57;;;102.05;;
9208;SDS011;4639;48.862;9.188;2023-09-18T11:48:22;108.18;;;101.45;;
9208;SDS011;4639;48.862;9.188;2023-09-18T11:50:49;110.57;;;103.78;;
9208;SDS011;4639;48.862;9.188;2023-09-18T11:53:17;131.57;;;123.18;;
9208;SDS011;4639;48.862;9.188;2023-09-18T11:55:45;118.40;;;111.18;;
9208;SDS011;4639;48.862;9.188;2023-09-18T11:58:12;117.30;;;109.90;;
9208;SDS011;4639;48.862;9.188;2023-09-18T12:00:38;116.70;;;109.55;;
9208;SDS011;4639;48.862;9.188;2023-09-18T12:03:13;124.10;;;116.75;;
9208;SDS011;4639;48.862;9.188;2023-09-18T12:05:58;125.80;;;118.43;;
9208;SDS011;4639;48.862;9.188;2023-09-18T12:08:30;131.43;;;123.60;;
9208;SDS011;4639;48.862;9.188;2023-09-18T12:10:56;129.88;;;122.18;;
9208;SDS011;4639;48.862;9.188;2023-09-18T12:13:26;144.20;;;135.35;;
9208;SDS011;4639;48.862;9.188;2023-09-18T12:16:02;152.77;;;143.68;;
9208;SDS011;4639;48.862;9.188;2023-09-18T12:18:32;208.80;;;195.23;;
9208;SDS011;4639;48.862;9.188;2023-09-18T12:21:00;170.88;;;160.32;;
9208;SDS011;4639;48.862;9.188;2023-09-18T12:23:29;143.32;;;134.93;;
9208;SDS011;4639;48.862;9.188;2023-09-18T12:26:01;152.80;;;143.27;;
9208;SDS011;4639;48.862;9.188;2023-09-18T12:28:28;142.55;;;134.13;;
9208;SDS011;4639;48.862;9.188;2023-09-18T12:30:54;130.35;;;122.40;;
9208;SDS011;4639;48.862;9.188;2023-09-18T12:33:22;132.75;;;124.82;;
9208;SDS011;4639;48.862;9.188;2023-09-18T12:35:49;131.40;;;123.75;;
9208;SDS011;4639;48.862;9.188;2023-09-18T12:38:18;131.88;;;124.07;;
9208;SDS011;4639;48.862;9.188;2023-09-18T12:40:48;140.50;;;132.27;;
9208;SDS011;4639;48.862;9.188;2023-09-18T12:43:14;141.18;;;132.95;;
9208;SDS011;4639;48.862;9.188;2023-09-18T12:45:40;139.00;;;130.75;;
9208;SDS011;4639;48.862;9.188;2023-09-18T12:48:07;139.35;;;131.13;;
9208;SDS011;4639;48.862;9.188;2023-09-18T12:50:35;143.63;;;135.35;;
9208;SDS011;4639;48.862;9.188;2023-09-18T12:53:10;166.43;;;156.38;;
9208;SDS011;4639;48.862;9.188;2023-09-18T12:55:37;152.15;;;143.07;;
9208;SDS011;4639;48.862;9.188;2023-09-18T12:58:03;150.45;;;141.32;;
9208;SDS011;4639;48.862;9.188;2023-09-18T13:00:32;166.10;;;155.70;;
9208;SDS011;4639;48.862;9.188;2023-09-18T13:02:58;167.68;;;157.15;;
9208;SDS011;4639;48.862;9.188;2023-09-18T13:05:24;154.48;;;145.02;;
9208;SDS011;4639;48.862;9.188;2023-09-18T13:07:51;155.32;;;145.82;;
9208;SDS011;4639;48.862;9.188;2023-09-18T13:10:20;172.60;;;161.63;;
9208;SDS011;4639;48.862;9.188;2023-09-18T13:12:50;165.20;;;154.73;;
9208;SDS011;4639;48.862;9.188;2023-09-18T13:17:59;125.20;;;117.43;;
9208;SDS011;4639;48.862;9.188;2023-09-18T13:20:26;112.80;;;105.80;;
9208;SDS011;4639;48.862;9.188;2023-09-18T13:22:56;123.05;;;115.60;;
9208;SDS011;4639;48.862;9.188;2023-09-18T13:25:30;158.68;;;148.38;;
9208;SDS011;4639;48.862;9.188;2023-09-18T13:28:00;140.15;;;131.00;;
9208;SDS011;4639;48.862;9.188;2023-09-18T13:30:28;152.38;;;142.57;;
9208;SDS011;4639;48.862;9.188;2023-09-18T13:33:03;233.25;;;218.35;;
9208;SDS011;4639;48.862;9.188;2023-09-18T13:35:31;181.52;;;170.55;;
9208;SDS011;4639;48.862;9.188;2023-09-18T13:37:57;320.63;;;298.83;;
9208;SDS011;4639;48.862;9.188;2023-09-18T13:40:23;188.65;;;176.63;;
9208;SDS011;4639;48.862;9.188;2023-09-18T13:42:48;283.90;;;265.05;;
9208;SDS011;4639;48.862;9.188;2023-09-18T13:45:14;271.55;;;253.77;;
9208;SDS011;4639;48.862;9.188;2023-09-18T13:47:43;323.88;;;297.45;;
9208;SDS011;4639;48.862;9.188;2023-09-18T13:50:09;191.70;;;178.48;;
9208;SDS011;4639;48.862;9.188;2023-09-18T13:52:38;259.35;;;238.57;;
9208;SDS011;4639;48.862;9.188;2023-09-18T13:55:03;265.05;;;244.80;;
9208;SDS011;4639;48.862;9.188;2023-09-18T13:57:34;224.82;;;208.20;;
9208;SDS011;4639;48.862;9.188;2023-09-18T14:00:00;303.60;;;279.75;;
9208;SDS011;4639;48.862;9.188;2023-09-18T14:02:30;276.17;;;255.00;;
9208;SDS011;4639;48.862;9.188;2023-09-18T14:04:55;330.50;;;303.23;;
9208;SDS011;4639;48.862;9.188;2023-09-18T14:07:21;273.63;;;253.02;;
9208;SDS011;4639;48.862;9.188;2023-09-18T14:09:49;275.02;;;254.05;;
9208;SDS011;4639;48.862;9.188;2023-09-18T14:12:15;305.15;;;281.10;;
9208;SDS011;4639;48.862;9.188;2023-09-18T14:14:41;296.40;;;273.25;;
9208;SDS011;4639;48.862;9.188;2023-09-18T14:17:11;284.17;;;262.40;;
9208;SDS011;4639;48.862;9.188;2023-09-18T14:19:37;284.83;;;262.73;;
9208;SDS011;4639;48.862;9.188;2023-09-18T14:22:06;301.17;;;277.95;;
9208;SDS011;4639;48.862;9.188;2023-09-18T14:24:32;287.77;;;266.27;;
9208;SDS011;4639;48.862;9.188;2023-09-18T14:27:01;308.92;;;285.17;;
9208;SDS011;4639;48.862;9.188;2023-09-18T14:29:28;295.00;;;272.42;;
9208;SDS011;4639;48.862;9.188;2023-09-18T14:31:55;284.25;;;262.25;;
9208;SDS011;4639;48.862;9.188;2023-09-18T14:34:21;307.05;;;283.13;;